Feesburg, Ohio
Current Conditions -  °F | °C
As of 2:55 PM on Sunday 23 Nov 2014 (Local Time) from KFGX Reporting Station
Overcast Overcast  
Wind Chill: 62°   Ceiling: 11000
Heat Index: 62°   Visibility: 10mi
Dew Point: 46°   Wind: 13mph
Humidity: 56%   Direction: 130°SE
Pressure: 29.72"   Gusts: NA
Location:  38.88°N, 84°W
Report Text: KFGX 231955Z AUTO 13011KT 10SM SCT075 OVC110 16/08 A2972 RMK AO2 T01640077
Loading
Personal Weather Stations






























Interactive Weather Map New forecast layout! Learn more

10-Day Weather Forecast

Advertisements
Track Severe Weather on mobile